createdAt,value
2019-01-09T00:00:49.493Z,1007.19
2019-01-09T00:01:49.465Z,1007.16
2019-01-09T00:02:49.446Z,1007.21
2019-01-09T00:03:49.429Z,1007.22
2019-01-09T00:04:49.397Z,1007.23
2019-01-09T00:05:49.384Z,1007.33
2019-01-09T00:06:49.343Z,1007.38
2019-01-09T00:07:49.319Z,1007.34
2019-01-09T00:08:49.287Z,1007.38
2019-01-09T00:09:49.268Z,1007.33
2019-01-09T00:10:49.243Z,1007.55
2019-01-09T00:11:49.217Z,1007.35
2019-01-09T00:12:49.244Z,1007.41
2019-01-09T00:13:49.160Z,1007.25
2019-01-09T00:14:49.135Z,1007.27
2019-01-09T00:15:49.108Z,1007.23
2019-01-09T00:16:49.083Z,1007.23
2019-01-09T00:17:49.059Z,1007.16
2019-01-09T00:18:49.033Z,1007.16
2019-01-09T00:19:49.022Z,1007.15
2019-01-09T00:20:48.989Z,1007.15
2019-01-09T00:21:48.965Z,1007.16
2019-01-09T00:22:48.932Z,1007.29
2019-01-09T00:23:48.920Z,1007.29
2019-01-09T00:24:48.884Z,1006.86
2019-01-09T00:25:48.853Z,1007.02
2019-01-09T00:26:48.827Z,1007.19
2019-01-09T00:27:48.811Z,1007.23
2019-01-09T00:28:48.776Z,1007.26
2019-01-09T00:29:48.760Z,1007.27
2019-01-09T00:30:48.725Z,1007.12
2019-01-09T00:31:48.696Z,1007.25
2019-01-09T00:32:48.673Z,1007.25
2019-01-09T00:33:48.647Z,1007.22
2019-01-09T00:34:48.620Z,1007.22
2019-01-09T00:35:48.595Z,1007.22
2019-01-09T00:36:48.570Z,1007.16
2019-01-09T00:37:48.543Z,1007.18
2019-01-09T00:38:48.526Z,1007.17
2019-01-09T00:39:48.494Z,1007.23
2019-01-09T00:40:48.466Z,1007.22
2019-01-09T00:41:48.441Z,1007.24
2019-01-09T00:42:48.416Z,1007.26
2019-01-09T00:43:48.397Z,1007.29
2019-01-09T00:44:48.362Z,1007.24
2019-01-09T00:45:48.340Z,1007.24
2019-01-09T00:46:48.323Z,1007.32
2019-01-09T00:47:48.298Z,1007.32
2019-01-09T00:48:48.260Z,1007.26
2019-01-09T00:49:48.237Z,1007.25
2019-01-09T00:50:48.217Z,1007.25
2019-01-09T00:51:48.182Z,1007.24
2019-01-09T00:52:48.156Z,1007.20
2019-01-09T00:53:48.133Z,1007.26
2019-01-09T00:54:48.108Z,1007.30
2019-01-09T00:55:48.078Z,1007.31
2019-01-09T00:56:48.053Z,1007.29
2019-01-09T00:57:48.027Z,1007.28
2019-01-09T00:58:48.003Z,1007.22
2019-01-09T00:59:47.976Z,1007.23
2019-01-09T01:00:47.950Z,1007.23
2019-01-09T01:01:47.943Z,1007.23
2019-01-09T01:02:47.900Z,1007.24
2019-01-09T01:03:48.484Z,1007.20
2019-01-09T01:04:47.856Z,1007.27
2019-01-09T01:05:47.823Z,1007.25
2019-01-09T01:06:47.807Z,1007.27
2019-01-09T01:07:47.771Z,1007.30
2019-01-09T01:08:47.754Z,1007.30
2019-01-09T01:09:47.720Z,1007.30
2019-01-09T01:10:47.779Z,1007.33
2019-01-09T01:11:47.666Z,1007.33
2019-01-09T01:12:47.641Z,1007.34
2019-01-09T01:13:47.619Z,1007.31
2019-01-09T01:14:47.590Z,1007.37
2019-01-09T01:15:47.562Z,1007.32
2019-01-09T01:16:47.545Z,1007.31
2019-01-09T01:17:47.511Z,1007.34
2019-01-09T01:18:47.487Z,1007.36
2019-01-09T01:19:47.465Z,1007.40
2019-01-09T01:20:47.443Z,1007.39
2019-01-09T01:21:47.410Z,1007.39
2019-01-09T01:22:47.387Z,1007.43
2019-01-09T01:23:47.356Z,1007.37
2019-01-09T01:24:47.332Z,1007.37
2019-01-09T01:25:47.304Z,1007.37
2019-01-09T01:26:47.279Z,1007.46
2019-01-09T01:27:47.252Z,1007.46
2019-01-09T01:28:47.227Z,1007.52
2019-01-09T01:29:47.201Z,1007.55
2019-01-09T01:30:47.176Z,1007.58
2019-01-09T01:31:47.152Z,1007.59
2019-01-09T01:32:47.123Z,1007.60
2019-01-09T01:33:47.098Z,1007.57
2019-01-09T01:34:47.087Z,1007.63
2019-01-09T01:35:54.481Z,1007.65
2019-01-09T01:36:47.020Z,1007.57
2019-01-09T01:37:47.003Z,1007.63
2019-01-09T01:38:46.969Z,1007.65
2019-01-09T01:41:46.917Z,1007.70
2019-01-09T01:42:46.885Z,1007.70
2019-01-09T01:43:46.859Z,1007.71
2019-01-09T01:44:46.833Z,1007.78
2019-01-09T01:45:46.813Z,1007.71
2019-01-09T01:48:51.157Z,1007.82
2019-01-09T01:49:31.928Z,1007.83
2019-01-09T01:50:31.902Z,1007.87
2019-01-09T01:51:31.878Z,1007.86
2019-01-09T01:52:31.849Z,1007.86
2019-01-09T01:53:31.834Z,1007.88
2019-01-09T01:54:31.801Z,1007.85
2019-01-09T01:55:31.773Z,1007.83
2019-01-09T01:56:31.750Z,1007.84
2019-01-09T01:57:31.720Z,1007.89
2019-01-09T01:58:31.694Z,1007.91
2019-01-09T01:59:31.669Z,1007.91
2019-01-09T02:00:31.642Z,1007.92
2019-01-09T02:01:31.617Z,1007.93
2019-01-09T02:02:31.592Z,1007.89
2019-01-09T02:03:31.565Z,1008.00
2019-01-09T02:04:31.539Z,1007.99
2019-01-09T02:05:31.512Z,1007.97
2019-01-09T02:06:31.486Z,1007.99
2019-01-09T02:07:31.461Z,1008.10
2019-01-09T02:08:31.436Z,1008.05
2019-01-09T02:09:31.410Z,1008.03
2019-01-09T02:10:31.385Z,1008.14
2019-01-09T02:11:31.357Z,1008.15
2019-01-09T02:12:31.330Z,1008.18
2019-01-09T02:13:31.307Z,1008.11
2019-01-09T02:22:31.680Z,1008.22
2019-01-09T02:22:32.627Z,1008.23
2019-01-09T02:23:32.597Z,1008.21
2019-01-09T02:24:32.572Z,1008.25
2019-01-09T02:26:05.754Z,1008.21
2019-01-09T02:26:32.522Z,1008.19
2019-01-09T02:28:05.701Z,1008.16
2019-01-09T02:30:17.908Z,1008.22
2019-01-09T02:31:17.900Z,1008.23
2019-01-09T02:32:17.858Z,1008.19
2019-01-09T02:33:17.831Z,1008.18
2019-01-09T02:34:17.811Z,1008.22
2019-01-09T02:35:50.989Z,1008.29
2019-01-09T02:36:17.753Z,1008.28
2019-01-09T02:37:50.935Z,1008.29
2019-01-09T02:40:36.302Z,1008.36
2019-01-09T02:41:02.965Z,1008.35
2019-01-09T02:42:02.939Z,1008.35
2019-01-09T02:43:02.914Z,1008.40
2019-01-09T02:44:36.097Z,1008.37
2019-01-09T02:45:02.860Z,1008.36
2019-01-09T02:46:36.055Z,1008.36
2019-01-09T02:49:21.513Z,1008.40
2019-01-09T02:49:48.278Z,1008.47
2019-01-09T02:50:48.252Z,1008.47
2019-01-09T02:51:48.226Z,1008.49
2019-01-09T02:53:21.457Z,1008.57
2019-01-09T02:53:48.183Z,1008.60
2019-01-09T02:55:21.360Z,1008.54
2019-01-09T02:58:06.827Z,1008.50
2019-01-09T02:58:33.593Z,1008.44
2019-01-09T03:00:06.784Z,1008.47
2019-01-09T03:01:06.751Z,1008.46
2019-01-09T03:01:33.513Z,1008.40
2019-01-09T03:03:06.698Z,1008.47
2019-01-09T03:05:51.969Z,1008.52
2019-01-09T03:06:23.051Z,1008.49
2019-01-09T03:09:36.905Z,1008.54
2019-01-09T03:10:03.670Z,1008.58
2019-01-09T03:13:22.045Z,1008.48
2019-01-09T03:13:48.810Z,1008.53
2019-01-09T03:17:07.183Z,1008.62
2019-01-09T03:17:33.947Z,1008.58
2019-01-09T03:20:52.225Z,1008.64
2019-01-09T03:21:18.988Z,1008.62
2019-01-09T03:24:37.365Z,1008.64
2019-01-09T03:25:04.127Z,1008.64
2019-01-09T04:34:27.081Z,1008.66
2019-01-09T04:35:54.004Z,1008.65
2019-01-09T04:38:05.851Z,1008.60
2019-01-09T04:39:39.036Z,1008.59
2019-01-09T04:41:51.039Z,1008.64
2019-01-09T04:43:24.221Z,1008.59
2019-01-09T04:45:36.025Z,1008.61
2019-01-09T04:47:09.214Z,1008.59
2019-01-09T04:49:21.115Z,1008.57
2019-01-09T04:50:54.295Z,1008.60
2019-01-09T05:28:46.504Z,1008.82
2019-01-09T05:29:06.998Z,1008.83
2019-01-09T05:30:06.980Z,1008.85
2019-01-09T05:31:07.743Z,1008.87
2019-01-09T05:32:06.922Z,1008.88
2019-01-09T05:33:06.893Z,1008.85
2019-01-09T05:34:06.866Z,1008.86
2019-01-09T05:35:06.841Z,1008.82
2019-01-09T05:36:06.815Z,1008.89
2019-01-09T05:37:09.574Z,1008.87
2019-01-09T05:38:06.762Z,1008.82
2019-01-09T05:39:06.738Z,1008.82
2019-01-09T05:40:06.726Z,1008.81
2019-01-09T05:41:06.685Z,1008.80
2019-01-09T05:42:06.656Z,1008.83
2019-01-09T05:43:06.733Z,1008.83
2019-01-09T05:44:06.605Z,1008.80
2019-01-09T05:45:06.578Z,1008.79
2019-01-09T05:46:06.554Z,1008.79
2019-01-09T05:47:06.525Z,1008.86
2019-01-09T05:48:06.499Z,1008.85
2019-01-09T05:49:06.478Z,1008.89
2019-01-09T05:50:06.453Z,1008.89
2019-01-09T05:51:06.433Z,1008.92
2019-01-09T05:52:06.395Z,1008.95
2019-01-09T05:53:06.368Z,1008.94
2019-01-09T05:54:06.350Z,1008.92
2019-01-09T05:55:06.317Z,1008.89
2019-01-09T05:56:06.289Z,1008.91
2019-01-09T05:57:06.263Z,1008.89
2019-01-09T05:58:06.238Z,1008.91
2019-01-09T05:59:06.216Z,1008.95
2019-01-09T06:00:06.185Z,1008.93
2019-01-09T06:01:06.159Z,1008.93
2019-01-09T06:02:06.134Z,1008.93
2019-01-09T06:03:06.110Z,1008.99
2019-01-09T06:04:06.081Z,1009.01
2019-01-09T06:05:06.053Z,1008.97
2019-01-09T06:06:06.028Z,1008.93
2019-01-09T06:07:06.011Z,1008.91
2019-01-09T06:08:05.978Z,1008.96
2019-01-09T06:09:05.952Z,1008.93
2019-01-09T06:10:05.924Z,1008.96
2019-01-09T06:11:05.904Z,1008.99
2019-01-09T06:12:05.875Z,1008.96
2019-01-09T06:13:05.843Z,1008.95
2019-01-09T06:14:05.823Z,1008.94
2019-01-09T06:15:05.796Z,1009.00
2019-01-09T06:16:05.764Z,1009.03
2019-01-09T06:17:05.738Z,1009.07
2019-01-09T06:18:05.712Z,1009.05
2019-01-09T06:19:05.685Z,1009.00
2019-01-09T06:20:05.661Z,1009.03
2019-01-09T06:21:05.632Z,1009.03
2019-01-09T06:22:05.608Z,1008.99
2019-01-09T06:23:05.583Z,1009.02
2019-01-09T06:24:05.553Z,1009.04
2019-01-09T06:25:05.528Z,1009.03
2019-01-09T06:26:05.509Z,1009.02
2019-01-09T06:27:05.474Z,1009.01
2019-01-09T06:28:05.455Z,1009.02
2019-01-09T06:29:05.420Z,1009.01
2019-01-09T06:30:05.396Z,1009.03
2019-01-09T06:31:05.366Z,1009.10
2019-01-09T06:32:05.342Z,1009.06
2019-01-09T06:33:05.316Z,1009.00
2019-01-09T06:34:05.290Z,1009.04
2019-01-09T06:35:05.271Z,1009.06
2019-01-09T06:36:05.237Z,1009.08
2019-01-09T06:37:05.219Z,1009.07
2019-01-09T06:38:05.185Z,1009.07
2019-01-09T06:39:05.157Z,1009.09
2019-01-09T06:40:05.130Z,1009.01
2019-01-09T06:41:05.103Z,1009.02
2019-01-09T06:42:05.077Z,1009.09
2019-01-09T06:43:05.051Z,1009.06
2019-01-09T06:44:05.025Z,1009.07
2019-01-09T06:45:04.999Z,1009.11
2019-01-09T06:46:04.980Z,1009.07
2019-01-09T06:47:04.949Z,1009.07
2019-01-09T06:48:04.926Z,1009.06
2019-01-09T06:49:04.894Z,1009.13
2019-01-09T06:50:04.870Z,1009.15
2019-01-09T06:51:04.842Z,1009.18
2019-01-09T06:52:04.816Z,1009.16
2019-01-09T06:53:04.825Z,1009.20
2019-01-09T06:54:04.801Z,1009.19
2019-01-09T06:55:04.745Z,1009.14
2019-01-09T06:56:04.758Z,1009.25
2019-01-09T06:57:04.690Z,1009.28
2019-01-09T06:58:04.658Z,1009.29
2019-01-09T06:59:04.648Z,1009.39
2019-01-09T07:00:04.609Z,1009.38
2019-01-09T07:01:04.588Z,1009.41
2019-01-09T07:02:04.563Z,1009.40
2019-01-09T07:03:04.530Z,1009.40
2019-01-09T07:04:04.514Z,1009.34
2019-01-09T07:05:04.477Z,1009.39
2019-01-09T07:06:04.457Z,1009.40
2019-01-09T07:07:04.422Z,1009.44
2019-01-09T07:08:04.406Z,1009.34
2019-01-09T07:09:04.370Z,1009.35
2019-01-09T07:10:04.345Z,1009.37
2019-01-09T07:11:04.319Z,1009.44
2019-01-09T07:12:04.293Z,1009.42
2019-01-09T07:13:04.267Z,1009.44
2019-01-09T07:14:04.240Z,1009.44
2019-01-09T07:15:11.483Z,1009.52
2019-01-09T07:16:04.188Z,1009.50
2019-01-09T07:17:04.162Z,1009.53
2019-01-09T07:18:04.135Z,1009.50
2019-01-09T07:19:04.122Z,1009.53
2019-01-09T07:20:04.082Z,1009.56
2019-01-09T07:21:04.056Z,1009.53
2019-01-09T07:22:04.031Z,1009.59
2019-01-09T07:23:04.005Z,1009.59
2019-01-09T07:24:03.986Z,1009.62
2019-01-09T07:25:03.958Z,1009.63
2019-01-09T07:26:03.927Z,1009.65
2019-01-09T07:27:03.901Z,1009.64
2019-01-09T07:28:03.926Z,1009.68
2019-01-09T07:29:03.867Z,1009.69
2019-01-09T07:30:03.820Z,1009.69
2019-01-09T07:31:03.794Z,1009.66
2019-01-09T07:32:03.775Z,1009.68
2019-01-09T07:33:03.740Z,1009.68
2019-01-09T07:34:03.728Z,1009.71
2019-01-09T07:35:03.690Z,1009.72
2019-01-09T07:36:03.662Z,1009.72
2019-01-09T07:37:03.635Z,1009.75
2019-01-09T07:38:03.617Z,1009.73
2019-01-09T07:39:03.599Z,1009.75
2019-01-09T07:40:03.559Z,1009.74
2019-01-09T07:41:03.532Z,1009.72
2019-01-09T07:42:03.516Z,1009.79
2019-01-09T07:43:03.482Z,1009.86
2019-01-09T07:44:03.452Z,1009.89
2019-01-09T07:45:03.422Z,1009.86
2019-01-09T07:46:03.404Z,1009.87
2019-01-09T07:47:03.380Z,1009.86
2019-01-09T07:48:03.346Z,1009.87
2019-01-09T07:49:03.360Z,1009.92
2019-01-09T07:50:03.291Z,1009.88
2019-01-09T07:51:03.272Z,1009.87
2019-01-09T07:52:03.246Z,1009.88
2019-01-09T07:53:03.211Z,1009.89
2019-01-09T07:54:03.185Z,1009.91
2019-01-09T07:55:03.165Z,1009.93
2019-01-09T07:56:03.137Z,1009.93
2019-01-09T07:57:03.104Z,1009.88
2019-01-09T07:58:03.077Z,1009.97
2019-01-09T07:59:03.051Z,1009.94
2019-01-09T08:00:03.026Z,1009.94
2019-01-09T08:01:03.005Z,1009.91
2019-01-09T08:02:02.971Z,1009.95
2019-01-09T08:03:02.950Z,1009.93
2019-01-09T08:04:02.927Z,1009.93
2019-01-09T08:05:02.892Z,1010.01
2019-01-09T08:06:02.865Z,1009.99
2019-01-09T08:07:02.843Z,1010.02
2019-01-09T08:08:02.819Z,1010.03
2019-01-09T08:09:02.851Z,1010.02
2019-01-09T08:10:02.766Z,1010.08
2019-01-09T08:11:02.735Z,1010.05
2019-01-09T08:12:02.703Z,1010.09
2019-01-09T08:13:02.683Z,1010.12
2019-01-09T08:14:02.650Z,1010.16
2019-01-09T08:15:02.628Z,1010.15
2019-01-09T08:16:02.629Z,1010.12
2019-01-09T08:17:02.569Z,1010.17
2019-01-09T08:18:02.544Z,1010.19
2019-01-09T08:19:02.526Z,1010.22
2019-01-09T08:20:02.496Z,1010.23
2019-01-09T08:21:05.551Z,1010.18
2019-01-09T08:22:02.451Z,1010.26
2019-01-09T08:23:02.410Z,1010.32
2019-01-09T08:24:02.390Z,1010.28
2019-01-09T08:25:02.359Z,1010.27
2019-01-09T08:26:02.335Z,1010.32
2019-01-09T08:27:02.313Z,1010.34
2019-01-09T08:28:02.340Z,1010.27
2019-01-09T08:29:02.254Z,1010.34
2019-01-09T08:30:02.230Z,1010.37
2019-01-09T08:31:02.209Z,1010.36
2019-01-09T08:32:02.178Z,1010.38
2019-01-09T08:33:02.151Z,1010.38
2019-01-09T08:34:02.132Z,1010.40
2019-01-09T08:35:02.096Z,1010.42
2019-01-09T08:36:02.068Z,1010.38
2019-01-09T08:37:02.052Z,1010.41
2019-01-09T08:38:02.939Z,1010.40
2019-01-09T08:39:01.994Z,1010.44
2019-01-09T08:40:01.962Z,1010.47
2019-01-09T08:41:01.939Z,1010.45
2019-01-09T08:42:01.910Z,1010.48
2019-01-09T08:43:01.885Z,1010.45
2019-01-09T08:44:01.861Z,1010.47
2019-01-09T08:45:01.836Z,1010.49
2019-01-09T08:46:01.805Z,1010.52
2019-01-09T08:47:01.780Z,1010.55
2019-01-09T08:48:01.771Z,1010.51
2019-01-09T08:49:01.729Z,1010.55
2019-01-09T08:50:01.705Z,1010.57
2019-01-09T08:51:01.727Z,1010.54
2019-01-09T08:52:01.660Z,1010.55
2019-01-09T08:53:01.633Z,1010.58
2019-01-09T08:54:01.602Z,1010.58
2019-01-09T08:55:01.581Z,1010.59
2019-01-09T08:56:01.548Z,1010.58
2019-01-09T08:57:01.522Z,1010.60
2019-01-09T08:58:01.497Z,1010.63
2019-01-09T08:59:01.473Z,1010.60
2019-01-09T09:00:01.452Z,1010.61
2019-01-09T09:01:01.428Z,1010.67
2019-01-09T09:02:01.393Z,1010.70
2019-01-09T09:03:01.368Z,1010.73
2019-01-09T09:04:01.344Z,1010.72
2019-01-09T09:05:01.321Z,1010.67
2019-01-09T09:06:01.291Z,1010.70
2019-01-09T09:07:01.277Z,1010.72
2019-01-09T09:08:01.249Z,1010.72
2019-01-09T09:09:01.223Z,1010.71
2019-01-09T09:10:01.199Z,1010.75
2019-01-09T09:11:01.163Z,1010.76
2019-01-09T09:12:01.152Z,1010.74
2019-01-09T09:13:01.112Z,1010.78
2019-01-09T09:14:01.090Z,1010.83
2019-01-09T09:15:01.224Z,1010.76
2019-01-09T09:16:01.051Z,1010.80
2019-01-09T09:17:01.017Z,1010.84
2019-01-09T09:18:01.160Z,1010.89
2019-01-09T09:19:00.979Z,1010.85
2019-01-09T09:20:00.936Z,1010.89
2019-01-09T09:21:00.910Z,1010.92
2019-01-09T09:22:00.884Z,1010.89
2019-01-09T09:23:00.867Z,1010.92
2019-01-09T09:24:00.839Z,1010.91
2019-01-09T09:25:00.809Z,1010.97
2019-01-09T09:26:00.800Z,1010.98
2019-01-09T09:27:00.758Z,1011.00
2019-01-09T09:28:00.734Z,1011.01
2019-01-09T09:29:00.709Z,1011.02
2019-01-09T09:30:00.685Z,1010.98
2019-01-09T09:31:00.665Z,1011.02
2019-01-09T09:32:00.648Z,1011.03
2019-01-09T09:33:00.607Z,1011.01
2019-01-09T09:34:00.579Z,1011.05
2019-01-09T09:35:00.555Z,1011.10
2019-01-09T09:36:00.530Z,1011.10
2019-01-09T09:37:00.504Z,1011.15
2019-01-09T09:38:00.479Z,1011.11
2019-01-09T09:39:00.458Z,1011.17
2019-01-09T09:40:00.446Z,1011.15
2019-01-09T09:41:00.419Z,1011.11
2019-01-09T09:42:00.386Z,1011.12
2019-01-09T09:43:00.404Z,1011.12
2019-01-09T09:44:00.327Z,1011.13
2019-01-09T09:45:00.300Z,1011.24
2019-01-09T09:46:00.341Z,1011.19
2019-01-09T09:47:00.248Z,1011.18
2019-01-09T09:48:00.232Z,1011.21
2019-01-09T09:49:00.203Z,1011.27
2019-01-09T09:50:00.287Z,1011.27
2019-01-09T09:51:00.145Z,1011.26
2019-01-09T09:52:00.124Z,1011.26
2019-01-09T09:53:00.102Z,1011.20
2019-01-09T09:54:00.069Z,1011.27
2019-01-09T09:55:00.049Z,1011.25
2019-01-09T09:56:00.018Z,1011.25
2019-01-09T09:56:59.996Z,1011.29
2019-01-09T09:58:05.666Z,1011.31
2019-01-09T09:58:59.940Z,1011.37
2019-01-09T09:59:59.920Z,1011.34
2019-01-09T10:00:59.889Z,1011.37
2019-01-09T10:01:59.864Z,1011.47
2019-01-09T10:02:59.838Z,1011.45
2019-01-09T10:03:59.814Z,1011.41
2019-01-09T10:04:59.786Z,1011.38
2019-01-09T10:05:59.761Z,1011.38
2019-01-09T10:06:59.740Z,1011.40
2019-01-09T10:07:59.714Z,1011.39
2019-01-09T10:08:59.680Z,1011.39
2019-01-09T10:09:59.654Z,1011.41
2019-01-09T10:10:59.635Z,1011.42
2019-01-09T10:11:59.614Z,1011.46
2019-01-09T10:12:59.578Z,1011.40
2019-01-09T10:13:59.551Z,1011.43
2019-01-09T10:14:59.526Z,1011.49
2019-01-09T10:15:59.511Z,1011.46
2019-01-09T10:16:59.481Z,1011.47
2019-01-09T10:17:59.449Z,1011.47
2019-01-09T10:18:59.432Z,1011.52
2019-01-09T10:19:59.398Z,1011.51
2019-01-09T10:20:59.373Z,1011.49
2019-01-09T10:21:59.357Z,1011.46
2019-01-09T10:22:59.319Z,1011.50
2019-01-09T10:23:59.301Z,1011.49
2019-01-09T10:24:59.270Z,1011.51
2019-01-09T10:25:59.244Z,1011.53
2019-01-09T10:26:59.232Z,1011.45
2019-01-09T10:27:59.193Z,1011.45
2019-01-09T10:28:59.166Z,1011.53
2019-01-09T10:29:59.148Z,1011.47
2019-01-09T10:30:59.121Z,1011.49
2019-01-09T10:31:59.298Z,1011.53
2019-01-09T10:32:59.064Z,1011.51
2019-01-09T10:33:59.045Z,1011.53
2019-01-09T10:34:59.022Z,1011.53
2019-01-09T10:35:58.988Z,1011.47
2019-01-09T10:36:58.965Z,1011.53
2019-01-09T10:37:58.936Z,1011.48
2019-01-09T10:38:58.916Z,1011.58
2019-01-09T10:39:58.886Z,1011.48
2019-01-09T10:40:58.875Z,1011.46
2019-01-09T10:41:58.844Z,1011.48
2019-01-09T10:42:58.809Z,1011.49
2019-01-09T10:43:58.794Z,1011.50
2019-01-09T10:44:58.759Z,1011.49
2019-01-09T10:45:58.738Z,1011.47
2019-01-09T10:46:58.718Z,1011.50
2019-01-09T10:47:58.691Z,1011.51
2019-01-09T10:48:58.658Z,1011.53
2019-01-09T10:49:58.636Z,1011.53
2019-01-09T10:50:58.619Z,1011.52
2019-01-09T10:51:58.586Z,1011.54
2019-01-09T10:52:58.560Z,1011.54
2019-01-09T10:54:00.599Z,1011.53
2019-01-09T10:54:58.513Z,1011.59
2019-01-09T10:55:58.494Z,1011.55
2019-01-09T10:56:58.480Z,1011.54
2019-01-09T10:57:58.439Z,1011.51
2019-01-09T10:58:58.414Z,1011.58
2019-01-09T10:59:58.397Z,1011.55
2019-01-09T11:00:58.520Z,1011.56
2019-01-09T11:01:58.348Z,1011.60
2019-01-09T11:02:58.315Z,1011.62
2019-01-09T11:03:58.296Z,1011.61
2019-01-09T11:04:58.270Z,1011.57
2019-01-09T11:05:58.242Z,1011.58
2019-01-09T11:06:58.219Z,1011.70
2019-01-09T11:07:58.194Z,1011.56
2019-01-09T11:08:58.178Z,1011.49
2019-01-09T11:09:58.157Z,1011.59
2019-01-09T11:10:58.124Z,1011.50
2019-01-09T11:11:58.100Z,1011.50
2019-01-09T11:12:58.084Z,1011.49
2019-01-09T11:13:58.051Z,1011.57
2019-01-09T11:14:58.026Z,1011.49
2019-01-09T11:15:58.003Z,1011.56
2019-01-09T11:16:57.977Z,1011.45
2019-01-09T11:17:57.954Z,1011.48
2019-01-09T11:18:57.942Z,1011.45
2019-01-09T11:19:57.915Z,1011.41
2019-01-09T11:20:57.882Z,1011.54
2019-01-09T11:21:57.860Z,1011.43
2019-01-09T11:22:57.836Z,1011.45
2019-01-09T11:23:57.809Z,1011.48
2019-01-09T11:24:57.783Z,1011.43
2019-01-09T11:25:57.762Z,1011.46
2019-01-09T11:26:57.738Z,1011.54
2019-01-09T11:27:57.723Z,1011.43
2019-01-09T11:28:57.690Z,1011.49
2019-01-09T11:29:57.682Z,1011.42
2019-01-09T11:30:57.645Z,1011.45
2019-01-09T11:31:57.620Z,1011.36
2019-01-09T11:32:57.594Z,1011.35
2019-01-09T11:33:57.570Z,1011.48
2019-01-09T11:34:57.549Z,1011.52
2019-01-09T11:35:57.527Z,1011.47
2019-01-09T11:36:57.597Z,1011.42
2019-01-09T11:37:57.489Z,1011.41
2019-01-09T11:38:57.448Z,1011.40
2019-01-09T11:39:57.429Z,1011.43
2019-01-09T11:40:57.399Z,1011.44
2019-01-09T11:41:57.384Z,1011.41
2019-01-09T11:42:57.358Z,1011.37
2019-01-09T11:43:57.326Z,1011.38
2019-01-09T11:44:57.302Z,1011.38
2019-01-09T11:45:57.279Z,1011.42
2019-01-09T11:46:57.254Z,1011.37
2019-01-09T11:47:57.231Z,1011.48
2019-01-09T11:48:57.205Z,1011.57
2019-01-09T11:49:57.182Z,1011.48
2019-01-09T11:50:57.166Z,1011.43
2019-01-09T11:51:57.150Z,1011.44
2019-01-09T11:52:57.111Z,1011.47
2019-01-09T11:53:57.086Z,1011.44
2019-01-09T11:54:57.063Z,1011.44
2019-01-09T11:55:57.039Z,1011.48
2019-01-09T11:56:57.031Z,1011.48
2019-01-09T11:57:56.989Z,1011.51
2019-01-09T11:58:56.966Z,1011.50
2019-01-09T11:59:56.944Z,1011.50
2019-01-09T12:00:56.919Z,1011.61
2019-01-09T12:01:56.904Z,1011.51
2019-01-09T12:02:56.882Z,1011.51
2019-01-09T12:03:56.846Z,1011.51
2019-01-09T12:04:56.823Z,1011.47
2019-01-09T12:05:56.805Z,1011.45
2019-01-09T12:06:56.782Z,1011.49
2019-01-09T12:07:56.754Z,1011.43
2019-01-09T12:09:04.271Z,1011.45
2019-01-09T12:09:56.701Z,1011.47
2019-01-09T12:10:56.725Z,1011.45
2019-01-09T12:11:56.654Z,1011.41
2019-01-09T12:12:56.628Z,1011.44
2019-01-09T12:13:56.606Z,1011.50
2019-01-09T12:14:56.587Z,1011.44
2019-01-09T12:15:56.565Z,1011.48
2019-01-09T12:16:56.532Z,1011.54
2019-01-09T12:17:56.511Z,1011.50
2019-01-09T12:18:56.490Z,1011.46
2019-01-09T12:19:56.463Z,1011.45
2019-01-09T12:20:56.436Z,1011.51
2019-01-09T12:21:56.423Z,1011.51
2019-01-09T12:22:56.392Z,1011.59
2019-01-09T12:23:56.366Z,1011.53
2019-01-09T12:24:56.347Z,1011.55
2019-01-09T12:25:56.315Z,1011.57
2019-01-09T12:26:56.301Z,1011.60
2019-01-09T12:27:56.277Z,1011.56
2019-01-09T12:28:56.251Z,1011.54
2019-01-09T12:29:56.220Z,1011.54
2019-01-09T12:30:56.195Z,1011.56
2019-01-09T12:31:56.179Z,1011.63
2019-01-09T12:32:56.149Z,1011.54
2019-01-09T12:33:56.133Z,1011.59
2019-01-09T12:34:56.111Z,1011.59
2019-01-09T12:35:56.082Z,1011.61
2019-01-09T12:36:56.050Z,1011.52
2019-01-09T12:37:56.136Z,1011.64
2019-01-09T12:38:56.002Z,1011.57
2019-01-09T12:39:55.987Z,1011.59
2019-01-09T12:40:55.955Z,1011.62
2019-01-09T12:41:55.936Z,1011.55
2019-01-09T12:42:55.918Z,1011.59
2019-01-09T12:43:55.893Z,1011.55
2019-01-09T12:44:55.859Z,1011.51
2019-01-09T12:45:55.833Z,1011.58
2019-01-09T12:46:55.809Z,1011.56
2019-01-09T12:47:55.788Z,1011.65
2019-01-09T12:48:55.759Z,1011.50
2019-01-09T12:49:55.737Z,1011.58
2019-01-09T12:50:55.713Z,1011.69
2019-01-09T12:51:55.697Z,1011.56
2019-01-09T12:52:55.666Z,1011.57
2019-01-09T12:53:55.642Z,1011.59
2019-01-09T12:54:55.617Z,1011.60
2019-01-09T12:55:55.592Z,1011.66
2019-01-09T12:56:55.565Z,1011.69
2019-01-09T12:57:55.543Z,1011.67
2019-01-09T12:58:55.517Z,1011.73
2019-01-09T12:59:55.512Z,1011.69
2019-01-09T13:00:55.476Z,1011.72
2019-01-09T13:01:55.444Z,1011.65
2019-01-09T13:02:55.436Z,1011.77
2019-01-09T13:03:55.411Z,1011.74
2019-01-09T13:04:55.371Z,1011.71
2019-01-09T13:05:55.347Z,1011.73
2019-01-09T13:06:55.328Z,1011.73
2019-01-09T13:07:55.312Z,1011.76
2019-01-09T13:08:55.274Z,1011.78
2019-01-09T13:09:55.254Z,1011.80
2019-01-09T13:10:55.226Z,1011.85
2019-01-09T13:11:55.201Z,1011.81
2019-01-09T13:12:55.186Z,1011.86
2019-01-09T13:13:55.151Z,1011.87
2019-01-09T13:14:55.143Z,1011.85
2019-01-09T13:15:55.108Z,1011.86
2019-01-09T13:16:55.133Z,1011.85
2019-01-09T13:17:55.064Z,1011.87
2019-01-09T13:18:55.035Z,1011.94
2019-01-09T13:19:55.011Z,1011.98
2019-01-09T13:20:54.979Z,1011.90
2019-01-09T13:21:54.971Z,1012.02
2019-01-09T13:22:54.934Z,1011.86
2019-01-09T13:23:54.924Z,1011.90
2019-01-09T13:24:54.885Z,1011.96
2019-01-09T13:25:54.858Z,1011.89
2019-01-09T13:26:54.836Z,1011.90
2019-01-09T13:27:54.819Z,1011.98
2019-01-09T13:28:54.785Z,1012.02
2019-01-09T13:29:54.761Z,1012.01
2019-01-09T13:30:54.752Z,1012.05
2019-01-09T13:31:54.714Z,1012.10
2019-01-09T13:32:54.690Z,1012.09
2019-01-09T13:33:54.672Z,1012.07
2019-01-09T13:34:54.638Z,1012.07
2019-01-09T13:35:54.623Z,1012.14
2019-01-09T13:36:54.591Z,1012.07
2019-01-09T13:37:54.565Z,1012.19
2019-01-09T13:38:54.542Z,1012.14
2019-01-09T13:39:54.659Z,1012.21
2019-01-09T13:40:54.511Z,1012.21
2019-01-09T13:41:54.470Z,1012.13
2019-01-09T13:42:54.461Z,1012.18
2019-01-09T13:43:54.421Z,1012.21
2019-01-09T13:44:54.408Z,1012.20
2019-01-09T13:45:54.393Z,1012.29
2019-01-09T13:46:54.347Z,1012.20
2019-01-09T13:47:54.332Z,1012.24
2019-01-09T13:48:54.314Z,1012.19
2019-01-09T13:49:54.287Z,1012.21
2019-01-09T13:50:54.251Z,1012.19
2019-01-09T13:51:54.237Z,1012.19
2019-01-09T13:52:54.208Z,1012.21
2019-01-09T13:53:54.186Z,1012.20
2019-01-09T13:54:54.168Z,1012.23
2019-01-09T13:55:54.129Z,1012.19
2019-01-09T13:56:54.118Z,1012.26
2019-01-09T13:57:54.078Z,1012.31
2019-01-09T13:58:54.054Z,1012.23
2019-01-09T13:59:54.033Z,1012.34
2019-01-09T14:00:54.005Z,1012.31
2019-01-09T14:01:53.990Z,1012.31
2019-01-09T14:02:53.961Z,1012.38
2019-01-09T14:03:53.932Z,1012.37
2019-01-09T14:04:53.907Z,1012.38
2019-01-09T14:05:53.885Z,1012.37
2019-01-09T14:06:53.861Z,1012.41
2019-01-09T14:07:53.834Z,1012.38
2019-01-09T14:08:53.824Z,1012.40
2019-01-09T14:09:53.792Z,1012.37
2019-01-09T14:10:53.760Z,1012.41
2019-01-09T14:11:53.743Z,1012.40
2019-01-09T14:12:53.713Z,1012.40
2019-01-09T14:13:53.688Z,1012.53
2019-01-09T14:14:53.662Z,1012.50
2019-01-09T14:15:53.637Z,1012.51
2019-01-09T14:16:53.622Z,1012.54
2019-01-09T14:17:53.618Z,1012.46
2019-01-09T14:18:55.295Z,1012.45
2019-01-09T14:19:53.542Z,1012.42
2019-01-09T14:20:53.516Z,1012.40
2019-01-09T14:21:53.498Z,1012.41
2019-01-09T14:22:53.466Z,1012.47
2019-01-09T14:23:53.444Z,1012.47
2019-01-09T14:24:53.420Z,1012.50
2019-01-09T14:25:53.393Z,1012.42